sensor_id;sensor_type;location;lat;lon;timestamp;pressure;altitude;pressure_sealevel;temperature;humidity
39051;BME280;24805;55.852;37.644;2023-05-10T00:00:34;100389.22;;;12.16;22.20
39051;BME280;24805;55.852;37.644;2023-05-10T00:05:36;100397.34;;;12.15;23.81
39051;BME280;24805;55.852;37.644;2023-05-10T00:10:38;100389.38;;;12.15;22.42
39051;BME280;24805;55.852;37.644;2023-05-10T00:15:40;100391.53;;;12.11;23.01
39051;BME280;24805;55.852;37.644;2023-05-10T00:20:42;100379.72;;;12.05;23.19
39051;BME280;24805;55.852;37.644;2023-05-10T00:25:43;100396.00;;;12.02;23.07
39051;BME280;24805;55.852;37.644;2023-05-10T00:30:45;100397.34;;;11.98;23.37
39051;BME280;24805;55.852;37.644;2023-05-10T00:35:47;100391.53;;;11.95;22.76
39051;BME280;24805;55.852;37.644;2023-05-10T00:40:49;100396.34;;;11.91;23.14
39051;BME280;24805;55.852;37.644;2023-05-10T00:45:59;100390.34;;;11.89;23.18
39051;BME280;24805;55.852;37.644;2023-05-10T00:51:01;100399.50;;;11.87;23.05
39051;BME280;24805;55.852;37.644;2023-05-10T00:56:03;100393.50;;;11.85;23.24
39051;BME280;24805;55.852;37.644;2023-05-10T01:01:05;100393.50;;;11.85;23.86
39051;BME280;24805;55.852;37.644;2023-05-10T01:06:07;100390.00;;;11.84;23.26
39051;BME280;24805;55.852;37.644;2023-05-10T01:11:09;100385.19;;;11.80;23.88
39051;BME280;24805;55.852;37.644;2023-05-10T01:16:11;100389.84;;;11.78;22.88
39051;BME280;24805;55.852;37.644;2023-05-10T01:37:13;100388.66;;;11.72;23.90
39051;BME280;24805;55.852;37.644;2023-05-10T01:42:17;100389.63;;;11.71;24.18
39051;BME280;24805;55.852;37.644;2023-05-10T01:47:27;100391.31;;;11.72;24.29
39051;BME280;24805;55.852;37.644;2023-05-10T01:52:32;100382.81;;;11.68;23.38
39051;BME280;24805;55.852;37.644;2023-05-10T01:57:37;100382.16;;;11.66;23.61
39051;BME280;24805;55.852;37.644;2023-05-10T02:02:42;100383.47;;;11.62;24.44
39051;BME280;24805;55.852;37.644;2023-05-10T02:07:46;100379.97;;;11.62;23.77
39051;BME280;24805;55.852;37.644;2023-05-10T02:12:48;100375.81;;;11.59;24.26
39051;BME280;24805;55.852;37.644;2023-05-10T02:17:52;100371.53;;;11.58;24.13
39051;BME280;24805;55.852;37.644;2023-05-10T02:22:55;100371.69;;;11.57;24.36
39051;BME280;24805;55.852;37.644;2023-05-10T02:27:58;100375.81;;;11.59;24.76
39051;BME280;24805;55.852;37.644;2023-05-10T02:33:01;100377.00;;;11.65;24.87
39051;BME280;24805;55.852;37.644;2023-05-10T02:38:06;100370.19;;;11.70;24.23
39051;BME280;24805;55.852;37.644;2023-05-10T02:43:12;100361.59;;;11.77;25.10
39051;BME280;24805;55.852;37.644;2023-05-10T02:48:15;100361.75;;;11.83;24.33
39051;BME280;24805;55.852;37.644;2023-05-10T02:53:29;100360.94;;;11.91;25.49
39051;BME280;24805;55.852;37.644;2023-05-10T02:58:33;100355.81;;;11.97;24.36
39051;BME280;24805;55.852;37.644;2023-05-10T03:03:34;100359.75;;;12.01;25.79
39051;BME280;24805;55.852;37.644;2023-05-10T03:08:36;100362.44;;;12.10;25.00
39051;BME280;24805;55.852;37.644;2023-05-10T03:18:50;100357.44;;;12.31;25.92
39051;BME280;24805;55.852;37.644;2023-05-10T03:23:59;100356.25;;;12.41;25.45
39051;BME280;24805;55.852;37.644;2023-05-10T03:29:05;100357.91;;;12.51;25.46
39051;BME280;24805;55.852;37.644;2023-05-10T03:34:08;100350.38;;;12.62;25.87
39051;BME280;24805;55.852;37.644;2023-05-10T03:39:10;100357.84;;;12.75;25.40
39051;BME280;24805;55.852;37.644;2023-05-10T03:44:12;100354.81;;;12.86;24.81
39051;BME280;24805;55.852;37.644;2023-05-10T03:49:14;100350.56;;;13.00;24.47
39051;BME280;24805;55.852;37.644;2023-05-10T03:54:16;100347.91;;;13.16;25.61
39051;BME280;24805;55.852;37.644;2023-05-10T03:59:18;100349.97;;;13.29;24.91
39051;BME280;24805;55.852;37.644;2023-05-10T04:04:20;100351.38;;;13.48;25.12
39051;BME280;24805;55.852;37.644;2023-05-10T04:09:24;100343.91;;;13.66;24.53
39051;BME280;24805;55.852;37.644;2023-05-10T04:14:26;100342.78;;;13.83;24.45
39051;BME280;24805;55.852;37.644;2023-05-10T04:19:29;100350.94;;;14.04;24.33
39051;BME280;24805;55.852;37.644;2023-05-10T04:24:31;100347.31;;;14.20;24.58
39051;BME280;24805;55.852;37.644;2023-05-10T04:29:33;100353.53;;;14.35;24.65
39051;BME280;24805;55.852;37.644;2023-05-10T04:34:34;100340.88;;;14.67;25.04
39051;BME280;24805;55.852;37.644;2023-05-10T04:39:36;100332.53;;;15.06;25.04
39051;BME280;24805;55.852;37.644;2023-05-10T04:44:41;100336.81;;;15.36;24.59
39051;BME280;24805;55.852;37.644;2023-05-10T04:49:44;100339.22;;;15.67;24.24
39051;BME280;24805;55.852;37.644;2023-05-10T04:54:46;100325.91;;;15.95;24.46
39051;BME280;24805;55.852;37.644;2023-05-10T04:59:47;100325.53;;;16.26;24.31
39051;BME280;24805;55.852;37.644;2023-05-10T05:04:51;100318.91;;;16.50;23.97
39051;BME280;24805;55.852;37.644;2023-05-10T05:09:53;100313.31;;;16.73;23.86
39051;BME280;24805;55.852;37.644;2023-05-10T05:14:55;100317.53;;;16.95;23.83
39051;BME280;24805;55.852;37.644;2023-05-10T05:19:56;100316.00;;;17.27;23.93
39051;BME280;24805;55.852;37.644;2023-05-10T05:24:58;100321.09;;;17.70;23.84
39051;BME280;24805;55.852;37.644;2023-05-10T05:30:00;100319.66;;;17.87;23.28
39051;BME280;24805;55.852;37.644;2023-05-10T05:35:02;100304.78;;;18.04;23.11
39051;BME280;24805;55.852;37.644;2023-05-10T05:40:05;100310.94;;;18.44;23.17
39051;BME280;24805;55.852;37.644;2023-05-10T05:45:07;100309.00;;;18.84;22.62
39051;BME280;24805;55.852;37.644;2023-05-10T05:50:10;100300.38;;;19.20;21.99
39051;BME280;24805;55.852;37.644;2023-05-10T05:55:12;100298.19;;;19.42;22.17
39051;BME280;24805;55.852;37.644;2023-05-10T06:00:14;100294.44;;;19.50;22.07
39051;BME280;24805;55.852;37.644;2023-05-10T06:05:19;100296.28;;;19.56;21.62
39051;BME280;24805;55.852;37.644;2023-05-10T06:10:22;100296.66;;;19.59;21.56
39051;BME280;24805;55.852;37.644;2023-05-10T06:15:24;100303.00;;;19.72;21.48
39051;BME280;24805;55.852;37.644;2023-05-10T06:20:26;100287.88;;;19.71;21.16
39051;BME280;24805;55.852;37.644;2023-05-10T06:25:28;100282.69;;;19.76;20.83
39051;BME280;24805;55.852;37.644;2023-05-10T06:30:30;100280.91;;;19.63;20.94
39051;BME280;24805;55.852;37.644;2023-05-10T06:35:32;100275.06;;;19.66;20.82
39051;BME280;24805;55.852;37.644;2023-05-10T06:40:35;100283.41;;;19.89;20.73
39051;BME280;24805;55.852;37.644;2023-05-10T06:45:37;100271.00;;;20.32;20.59
39051;BME280;24805;55.852;37.644;2023-05-10T06:50:39;100271.63;;;20.70;20.55
39051;BME280;24805;55.852;37.644;2023-05-10T06:55:41;100273.09;;;21.03;20.07
39051;BME280;24805;55.852;37.644;2023-05-10T07:00:44;100278.31;;;21.34;20.12
39051;BME280;24805;55.852;37.644;2023-05-10T07:05:47;100278.78;;;21.43;19.82
39051;BME280;24805;55.852;37.644;2023-05-10T07:10:48;100272.84;;;21.52;19.41
39051;BME280;24805;55.852;37.644;2023-05-10T07:15:51;100274.06;;;21.80;19.95
39051;BME280;24805;55.852;37.644;2023-05-10T07:20:53;100268.38;;;22.23;19.59
39051;BME280;24805;55.852;37.644;2023-05-10T07:25:54;100270.53;;;22.96;19.48
39051;BME280;24805;55.852;37.644;2023-05-10T07:30:58;100267.25;;;23.84;19.29
39051;BME280;24805;55.852;37.644;2023-05-10T07:36:00;100261.25;;;25.20;17.92
39051;BME280;24805;55.852;37.644;2023-05-10T07:41:02;100260.69;;;27.03;18.65
39051;BME280;24805;55.852;37.644;2023-05-10T07:46:04;100257.66;;;28.77;17.67
39051;BME280;24805;55.852;37.644;2023-05-10T07:51:06;100251.19;;;30.19;16.64
39051;BME280;24805;55.852;37.644;2023-05-10T07:56:21;100256.69;;;31.14;16.50
39051;BME280;24805;55.852;37.644;2023-05-10T08:01:24;100251.50;;;31.32;15.15
39051;BME280;24805;55.852;37.644;2023-05-10T08:06:26;100243.06;;;32.39;14.54
39051;BME280;24805;55.852;37.644;2023-05-10T08:11:29;100249.47;;;35.03;15.11
39051;BME280;24805;55.852;37.644;2023-05-10T08:16:32;100233.13;;;37.85;8.87
39051;BME280;24805;55.852;37.644;2023-05-10T08:21:34;100228.31;;;39.72;12.25
39051;BME280;24805;55.852;37.644;2023-05-10T08:26:37;100217.94;;;40.98;5.78
39051;BME280;24805;55.852;37.644;2023-05-10T08:31:39;100219.97;;;41.36;9.09
39051;BME280;24805;55.852;37.644;2023-05-10T08:36:41;100214.28;;;41.13;7.25
39051;BME280;24805;55.852;37.644;2023-05-10T08:41:43;100211.59;;;40.00;10.23
39051;BME280;24805;55.852;37.644;2023-05-10T08:46:46;100202.84;;;38.49;8.04
39051;BME280;24805;55.852;37.644;2023-05-10T08:51:49;100194.50;;;37.88;10.40
39051;BME280;24805;55.852;37.644;2023-05-10T08:56:52;100195.09;;;38.43;9.89
39051;BME280;24805;55.852;37.644;2023-05-10T09:01:55;100189.78;;;39.42;7.40
39051;BME280;24805;55.852;37.644;2023-05-10T09:06:59;100183.91;;;40.70;7.65
39051;BME280;24805;55.852;37.644;2023-05-10T09:12:01;100179.50;;;41.04;6.00
39051;BME280;24805;55.852;37.644;2023-05-10T09:17:03;100178.53;;;38.95;8.78
39051;BME280;24805;55.852;37.644;2023-05-10T09:22:06;100173.34;;;36.55;9.17
39051;BME280;24805;55.852;37.644;2023-05-10T09:27:07;100168.66;;;34.59;9.28
39051;BME280;24805;55.852;37.644;2023-05-10T09:32:09;100145.16;;;35.39;10.15
39051;BME280;24805;55.852;37.644;2023-05-10T09:37:12;100154.66;;;37.69;7.62
39051;BME280;24805;55.852;37.644;2023-05-10T09:42:14;100149.28;;;38.21;6.34
39051;BME280;24805;55.852;37.644;2023-05-10T09:47:19;100149.97;;;38.94;8.86
39051;BME280;24805;55.852;37.644;2023-05-10T09:52:21;100135.19;;;36.70;8.23
39051;BME280;24805;55.852;37.644;2023-05-10T09:57:23;100124.84;;;33.61;9.97
39051;BME280;24805;55.852;37.644;2023-05-10T10:02:29;100126.03;;;31.89;9.40
39051;BME280;24805;55.852;37.644;2023-05-10T10:07:31;100122.59;;;31.18;10.16
39051;BME280;24805;55.852;37.644;2023-05-10T10:12:33;100115.59;;;30.32;10.56
39051;BME280;24805;55.852;37.644;2023-05-10T10:17:35;100113.56;;;29.42;10.58
39051;BME280;24805;55.852;37.644;2023-05-10T10:22:38;100101.97;;;28.87;11.00
39051;BME280;24805;55.852;37.644;2023-05-10T10:32:59;100106.69;;;28.17;11.32
39051;BME280;24805;55.852;37.644;2023-05-10T10:38:17;100104.78;;;28.12;11.54
39051;BME280;24805;55.852;37.644;2023-05-10T10:43:28;100097.13;;;28.20;11.62
39051;BME280;24805;55.852;37.644;2023-05-10T10:48:30;100087.44;;;28.53;11.40
39051;BME280;24805;55.852;37.644;2023-05-10T10:53:32;100090.56;;;29.14;11.47
39051;BME280;24805;55.852;37.644;2023-05-10T10:58:34;100089.63;;;29.81;11.59
39051;BME280;24805;55.852;37.644;2023-05-10T11:03:35;100087.16;;;30.09;11.50
39051;BME280;24805;55.852;37.644;2023-05-10T11:08:41;100083.66;;;29.56;11.22
39051;BME280;24805;55.852;37.644;2023-05-10T11:13:46;100079.59;;;28.85;11.54
39051;BME280;24805;55.852;37.644;2023-05-10T11:23:55;100066.22;;;27.65;12.16
39051;BME280;24805;55.852;37.644;2023-05-10T11:28:58;100063.00;;;27.02;12.34
39051;BME280;24805;55.852;37.644;2023-05-10T11:34:02;100055.63;;;26.72;12.69
39051;BME280;24805;55.852;37.644;2023-05-10T11:39:04;100058.34;;;26.57;12.95
39051;BME280;24805;55.852;37.644;2023-05-10T11:44:06;100038.16;;;26.37;12.91
39051;BME280;24805;55.852;37.644;2023-05-10T11:49:10;100038.44;;;26.51;13.07
39051;BME280;24805;55.852;37.644;2023-05-10T11:54:13;100046.25;;;26.17;12.79
39051;BME280;24805;55.852;37.644;2023-05-10T11:59:15;100051.31;;;25.93;13.04
39051;BME280;24805;55.852;37.644;2023-05-10T12:04:17;100044.75;;;25.89;13.25
39051;BME280;24805;55.852;37.644;2023-05-10T12:09:19;100029.56;;;25.93;13.45
39051;BME280;24805;55.852;37.644;2023-05-10T12:14:40;100033.09;;;25.99;13.52
39051;BME280;24805;55.852;37.644;2023-05-10T12:19:42;100029.28;;;25.90;13.51
39051;BME280;24805;55.852;37.644;2023-05-10T12:24:45;100028.63;;;25.25;13.31
39051;BME280;24805;55.852;37.644;2023-05-10T12:29:47;100024.69;;;24.74;13.80
39051;BME280;24805;55.852;37.644;2023-05-10T12:34:51;100019.88;;;24.54;13.95
39051;BME280;24805;55.852;37.644;2023-05-10T12:39:54;100017.88;;;24.45;14.74
39051;BME280;24805;55.852;37.644;2023-05-10T12:44:56;100016.97;;;24.34;14.12
39051;BME280;24805;55.852;37.644;2023-05-10T12:49:59;100015.19;;;24.23;14.27
39051;BME280;24805;55.852;37.644;2023-05-10T12:55:02;100011.81;;;24.11;14.33
39051;BME280;24805;55.852;37.644;2023-05-10T13:00:04;100007.97;;;24.07;14.77
39051;BME280;24805;55.852;37.644;2023-05-10T13:05:07;100007.78;;;23.91;14.13
39051;BME280;24805;55.852;37.644;2023-05-10T13:10:09;99997.59;;;23.77;15.02
39051;BME280;24805;55.852;37.644;2023-05-10T13:15:11;100002.19;;;23.76;14.54
39051;BME280;24805;55.852;37.644;2023-05-10T13:20:13;99999.59;;;23.86;14.81
39051;BME280;24805;55.852;37.644;2023-05-10T13:25:16;100002.44;;;23.96;14.64
39051;BME280;24805;55.852;37.644;2023-05-10T13:30:19;100000.00;;;24.00;14.68
39051;BME280;24805;55.852;37.644;2023-05-10T13:35:22;99990.47;;;23.92;14.94
39051;BME280;24805;55.852;37.644;2023-05-10T13:40:23;99989.41;;;23.72;14.86
39051;BME280;24805;55.852;37.644;2023-05-10T13:45:25;99985.69;;;23.56;15.17
39051;BME280;24805;55.852;37.644;2023-05-10T13:50:27;99977.63;;;23.44;14.93
39051;BME280;24805;55.852;37.644;2023-05-10T13:55:29;99986.50;;;23.18;14.75
39051;BME280;24805;55.852;37.644;2023-05-10T14:00:32;99983.63;;;23.08;15.26
39051;BME280;24805;55.852;37.644;2023-05-10T14:05:34;99983.16;;;22.94;15.34
39051;BME280;24805;55.852;37.644;2023-05-10T14:10:35;99984.38;;;22.86;15.12
39051;BME280;24805;55.852;37.644;2023-05-10T14:15:38;99979.75;;;22.70;15.46
39051;BME280;24805;55.852;37.644;2023-05-10T14:20:40;99980.56;;;22.54;15.69
39051;BME280;24805;55.852;37.644;2023-05-10T14:25:42;99975.69;;;22.39;15.89
39051;BME280;24805;55.852;37.644;2023-05-10T14:30:45;99987.31;;;22.23;15.65
39051;BME280;24805;55.852;37.644;2023-05-10T14:35:47;99968.13;;;22.08;16.20
39051;BME280;24805;55.852;37.644;2023-05-10T14:40:49;99971.09;;;21.94;15.72
39051;BME280;24805;55.852;37.644;2023-05-10T14:45:51;99979.59;;;21.75;15.83
39051;BME280;24805;55.852;37.644;2023-05-10T14:50:53;99977.38;;;21.60;16.11
39051;BME280;24805;55.852;37.644;2023-05-10T14:55:55;99969.22;;;21.43;16.80
39051;BME280;24805;55.852;37.644;2023-05-10T15:00:57;99966.75;;;21.18;16.48
39051;BME280;24805;55.852;37.644;2023-05-10T15:05:59;99964.31;;;20.93;17.04
39051;BME280;24805;55.852;37.644;2023-05-10T15:11:01;99966.75;;;20.83;17.01
39051;BME280;24805;55.852;37.644;2023-05-10T15:16:03;99961.34;;;20.72;17.69
39051;BME280;24805;55.852;37.644;2023-05-10T15:21:05;99959.00;;;20.63;17.54
39051;BME280;24805;55.852;37.644;2023-05-10T15:26:07;99960.50;;;20.59;17.69
39051;BME280;24805;55.852;37.644;2023-05-10T15:31:09;99960.41;;;20.54;17.66
39051;BME280;24805;55.852;37.644;2023-05-10T15:36:12;99958.38;;;20.50;17.34
39051;BME280;24805;55.852;37.644;2023-05-10T15:41:14;99945.41;;;20.28;18.08
39051;BME280;24805;55.852;37.644;2023-05-10T15:46:15;99950.31;;;20.20;17.52
39051;BME280;24805;55.852;37.644;2023-05-10T15:51:17;99953.88;;;20.02;17.43
39051;BME280;24805;55.852;37.644;2023-05-10T15:56:20;99953.69;;;19.85;17.58
39051;BME280;24805;55.852;37.644;2023-05-10T16:01:23;99943.56;;;19.69;17.87
39051;BME280;24805;55.852;37.644;2023-05-10T16:06:25;99944.44;;;19.63;18.50
39051;BME280;24805;55.852;37.644;2023-05-10T16:11:27;99948.06;;;19.57;18.92
39051;BME280;24805;55.852;37.644;2023-05-10T16:16:29;99950.81;;;19.50;19.27
39051;BME280;24805;55.852;37.644;2023-05-10T16:21:31;99947.34;;;19.43;18.82
39051;BME280;24805;55.852;37.644;2023-05-10T16:26:33;99939.59;;;19.35;19.18
39051;BME280;24805;55.852;37.644;2023-05-10T16:31:41;99945.31;;;19.20;19.25
39051;BME280;24805;55.852;37.644;2023-05-10T16:36:43;99942.19;;;19.05;19.45
39051;BME280;24805;55.852;37.644;2023-05-10T16:41:45;99948.50;;;18.92;20.17
39051;BME280;24805;55.852;37.644;2023-05-10T16:46:47;99952.94;;;18.80;19.26
39051;BME280;24805;55.852;37.644;2023-05-10T16:51:49;99953.91;;;18.68;20.15
39051;BME280;24805;55.852;37.644;2023-05-10T16:56:51;99947.78;;;18.54;19.39
39051;BME280;24805;55.852;37.644;2023-05-10T17:01:53;99960.47;;;18.40;19.39
39051;BME280;24805;55.852;37.644;2023-05-10T17:06:55;99955.81;;;18.29;19.70
39051;BME280;24805;55.852;37.644;2023-05-10T17:11:58;99961.66;;;18.19;19.98
39051;BME280;24805;55.852;37.644;2023-05-10T17:17:00;99964.59;;;18.11;19.55
39051;BME280;24805;55.852;37.644;2023-05-10T17:22:02;99967.31;;;18.05;19.77
39051;BME280;24805;55.852;37.644;2023-05-10T17:27:04;99967.13;;;18.00;20.13
39051;BME280;24805;55.852;37.644;2023-05-10T17:32:06;99968.84;;;17.94;19.27
39051;BME280;24805;55.852;37.644;2023-05-10T17:37:09;99968.66;;;17.89;20.26
39051;BME280;24805;55.852;37.644;2023-05-10T17:42:11;99972.78;;;17.85;19.39
39051;BME280;24805;55.852;37.644;2023-05-10T17:47:14;99980.22;;;17.83;20.17
39051;BME280;24805;55.852;37.644;2023-05-10T17:52:16;99995.09;;;17.79;18.87
39051;BME280;24805;55.852;37.644;2023-05-10T17:57:18;99989.38;;;17.75;20.37
39051;BME280;24805;55.852;37.644;2023-05-10T18:02:21;99988.13;;;17.71;20.76
39051;BME280;24805;55.852;37.644;2023-05-10T18:07:23;99987.13;;;17.66;20.42
39051;BME280;24805;55.852;37.644;2023-05-10T18:12:26;99984.19;;;17.61;20.27
39051;BME280;24805;55.852;37.644;2023-05-10T18:17:28;99987.34;;;17.58;20.42
39051;BME280;24805;55.852;37.644;2023-05-10T18:22:30;99987.13;;;17.52;20.57
39051;BME280;24805;55.852;37.644;2023-05-10T18:27:32;99982.63;;;17.46;19.56
39051;BME280;24805;55.852;37.644;2023-05-10T18:32:34;99984.06;;;17.42;19.30
39051;BME280;24805;55.852;37.644;2023-05-10T18:37:39;99973.16;;;17.31;20.11
39051;BME280;24805;55.852;37.644;2023-05-10T18:42:40;99978.94;;;17.34;20.48
39051;BME280;24805;55.852;37.644;2023-05-10T18:47:42;99980.19;;;17.32;20.02
39051;BME280;24805;55.852;37.644;2023-05-10T18:52:44;99978.75;;;17.29;20.70
39051;BME280;24805;55.852;37.644;2023-05-10T18:57:47;99989.88;;;17.26;20.42
39051;BME280;24805;55.852;37.644;2023-05-10T19:02:49;99988.44;;;17.23;20.83
39051;BME280;24805;55.852;37.644;2023-05-10T19:07:51;99988.84;;;17.20;21.33
39051;BME280;24805;55.852;37.644;2023-05-10T19:12:53;99995.06;;;17.14;23.24
39051;BME280;24805;55.852;37.644;2023-05-10T19:17:56;99999.19;;;17.04;21.08
39051;BME280;24805;55.852;37.644;2023-05-10T19:22:59;99997.56;;;16.90;21.48
39051;BME280;24805;55.852;37.644;2023-05-10T19:28:10;99987.25;;;16.80;21.39
39051;BME280;24805;55.852;37.644;2023-05-10T19:33:13;99993.66;;;16.72;21.64
39051;BME280;24805;55.852;37.644;2023-05-10T19:38:15;99987.44;;;16.65;20.54
39051;BME280;24805;55.852;37.644;2023-05-10T19:43:17;99992.81;;;16.65;21.74
39051;BME280;24805;55.852;37.644;2023-05-10T19:48:19;99987.44;;;16.65;22.30
39051;BME280;24805;55.852;37.644;2023-05-10T19:53:21;99985.41;;;16.67;22.36
39051;BME280;24805;55.852;37.644;2023-05-10T19:58:23;99985.41;;;16.67;22.10
39051;BME280;24805;55.852;37.644;2023-05-10T20:03:26;99988.06;;;16.67;23.18
39051;BME280;24805;55.852;37.644;2023-05-10T20:08:29;99984.56;;;16.67;23.38
39051;BME280;24805;55.852;37.644;2023-05-10T20:13:31;99986.19;;;16.61;23.49
39051;BME280;24805;55.852;37.644;2023-05-10T20:18:33;99987.63;;;16.57;23.62
39051;BME280;24805;55.852;37.644;2023-05-10T20:23:35;99984.75;;;16.52;22.95
39051;BME280;24805;55.852;37.644;2023-05-10T20:28:37;99983.28;;;16.49;23.70
39051;BME280;24805;55.852;37.644;2023-05-10T20:33:39;99984.31;;;16.48;23.58
39051;BME280;24805;55.852;37.644;2023-05-10T20:38:41;99988.22;;;16.46;23.26
39051;BME280;24805;55.852;37.644;2023-05-10T20:43:43;99987.59;;;16.44;23.89
39051;BME280;24805;55.852;37.644;2023-05-10T20:48:45;99988.84;;;16.41;23.76
39051;BME280;24805;55.852;37.644;2023-05-10T20:53:47;99996.47;;;16.38;23.66
39051;BME280;24805;55.852;37.644;2023-05-10T20:58:49;99989.03;;;16.33;24.23
39051;BME280;24805;55.852;37.644;2023-05-10T21:03:51;99992.09;;;16.24;25.10
39051;BME280;24805;55.852;37.644;2023-05-10T21:08:53;99986.31;;;16.13;24.13
39051;BME280;24805;55.852;37.644;2023-05-10T21:13:55;99984.44;;;16.07;24.84
39051;BME280;24805;55.852;37.644;2023-05-10T21:18:57;99988.75;;;16.02;24.26
39051;BME280;24805;55.852;37.644;2023-05-10T21:24:00;99988.56;;;15.97;24.83
39051;BME280;24805;55.852;37.644;2023-05-10T21:29:02;99989.13;;;15.92;24.80
39051;BME280;24805;55.852;37.644;2023-05-10T21:34:05;99990.97;;;15.85;25.03
39051;BME280;24805;55.852;37.644;2023-05-10T21:39:07;100002.25;;;15.74;23.77
39051;BME280;24805;55.852;37.644;2023-05-10T21:44:09;99996.63;;;15.62;23.85
39051;BME280;24805;55.852;37.644;2023-05-10T21:49:11;99991.81;;;15.51;23.90
39051;BME280;24805;55.852;37.644;2023-05-10T21:54:13;100004.94;;;15.46;25.77
39051;BME280;24805;55.852;37.644;2023-05-10T21:59:15;99997.31;;;15.43;26.34
39051;BME280;24805;55.852;37.644;2023-05-10T22:04:18;99996.47;;;15.42;26.47
39051;BME280;24805;55.852;37.644;2023-05-10T22:09:20;100000.19;;;15.41;26.72
39051;BME280;24805;55.852;37.644;2023-05-10T22:14:25;100002.03;;;15.41;26.55
39051;BME280;24805;55.852;37.644;2023-05-10T22:19:27;99998.53;;;15.40;26.69
39051;BME280;24805;55.852;37.644;2023-05-10T22:24:29;100001.19;;;15.40;26.73
39051;BME280;24805;55.852;37.644;2023-05-10T22:29:31;100003.88;;;15.40;26.58
39051;BME280;24805;55.852;37.644;2023-05-10T22:34:33;99998.94;;;15.37;27.15
39051;BME280;24805;55.852;37.644;2023-05-10T22:39:36;99999.34;;;15.34;26.87
39051;BME280;24805;55.852;37.644;2023-05-10T22:44:38;99997.03;;;15.31;27.15
39051;BME280;24805;55.852;37.644;2023-05-10T22:49:40;99998.47;;;15.27;27.39
39051;BME280;24805;55.852;37.644;2023-05-10T22:54:43;100002.53;;;15.23;27.54
39051;BME280;24805;55.852;37.644;2023-05-10T22:59:44;100001.28;;;15.19;27.26
39051;BME280;24805;55.852;37.644;2023-05-10T23:04:46;99995.72;;;15.14;27.70
39051;BME280;24805;55.852;37.644;2023-05-10T23:09:48;99996.09;;;15.11;27.90
39051;BME280;24805;55.852;37.644;2023-05-10T23:14:50;99997.50;;;15.07;27.88
39051;BME280;24805;55.852;37.644;2023-05-10T23:19:52;100002.41;;;15.03;27.64
39051;BME280;24805;55.852;37.644;2023-05-10T23:24:55;100002.78;;;15.00;27.20
39051;BME280;24805;55.852;37.644;2023-05-10T23:29:57;100009.56;;;14.96;27.73
39051;BME280;24805;55.852;37.644;2023-05-10T23:35:00;100009.75;;;14.95;27.77
39051;BME280;24805;55.852;37.644;2023-05-10T23:40:02;100009.13;;;14.93;28.87
39051;BME280;24805;55.852;37.644;2023-05-10T23:45:04;100006.81;;;14.90;28.43
39051;BME280;24805;55.852;37.644;2023-05-10T23:50:06;100005.81;;;14.91;28.29
39051;BME280;24805;55.852;37.644;2023-05-10T23:55:08;100009.50;;;14.90;27.91
